Irvine, KY

5:59 PM EDT on August 30, 2014 (GMT -0400)
London-Corbin / McKee | Change Station
CLOSE
Current Station
Airport
Location: London-Corbin,
Elevation: 1211 ft
Nearby Weather Stations

Elev 1211 ft 37.09 °N, 84.08 °W | Updated 6 minutes ago

Partly Cloudy
Partly Cloudy
87 °F
Feels Like 89 °F
N
8
Wind Variable Wind from WSW

Today
High -- | Low -- °F
--% Chance of Precip.
Yesterday
High -- | Low -- °F
Precip. -- in
7:04 AM 8:07 PM
Waxing Crescent, 25% visible
Pressure 30.04 in
Visibility 10.0 miles
Clouds Few 7500 ft
Heat Index 89 °F
Dew Point 66 °F
Humidity 49%
Rainfall 0.00 in
Snow Depth Not available.
UV 2 out of 12
Pollen 10.10 out of 12
Air Quality Not available.
Flu Activity Not available.
METAR KLOZ 302153Z AUTO 24007KT 10SM FEW075 31/19 A3008 RMK AO2 SLP171 T03060189

More Conditions Fewer Conditions

Pressure 30.04 in
Visibility 10.0 miles
Clouds Few 7500 ft
Heat Index 89 °F
Dew Point 66 °F
Humidity 49%
Rainfall 0.00 in
Snow Depth Not available.
UV 2 out of 12
Pollen 10.10 out of 12
Air Quality Not available.
Flu Activity Not available.
METAR KLOZ 302153Z AUTO 24007KT 10SM FEW075 31/19 A3008 RMK AO2 SLP171 T03060189

More Conditions Fewer Conditions

10-Day Weather Forecast

Almanac

Astronomy

Aug. 30, 2014 Rise Set
Actual Time 7:04 AM EDT 8:07 PM EDT
Civil Twilight 6:37 AM EDT 8:34 PM EDT
Nautical Twilight 6:05 AM EDT 9:06 PM EDT
Astronomical Twilight 5:31 AM EDT 9:39 PM EDT
Moon 11:45 AM EDT 10:47 PM EDT
Length of Visible Light 13h 57m
Length of Day
13h 03m
Tomorrow will be 2m 18s shorter.
Waxing Crescent, 25% of the Moon is Illuminated
Today
Waxing Crescent
Sep 2
First Quarter
Sep 8
Full
Sep 15
Last Quarter
Sep 24
New

Today's Extremes

State Highs State Lows

Community

WunderPhotos

Upload Photos

1,748,647 photos uploaded!

WunderBlogs® & News

Nearby

Snow Depth

Station Depth Elevation
No new snow has been reported.

Earthquake Activity

City Distance Mag. Time & Date
No recent earthquake activity has been reported nearby.
Minimum magnitude displayed is 2.5.

Coastal Water Temperatures

Place Temperature
No Stations Reporting

Nearby Weather Stations